Aeroporto :
LOGIN :

Iscrizione | Disclaimer

   EN    FR    IT 

 










Sommario :    VFR   VFR Marginale   IFR   IFR Intensivo   IFR Molto Intensivo
Visibilità : 
Base nubi : 
>= 8 km
>= 3000ft
5 / 8 km
1000 / 3000 ft
1500m / 5 km
500 / 1000 ft
800 / 1500m
200 / 500 ft
< 800m
< 200 ft
Simboli :   Temporali  Nebbia  Neve Forte  Precipitazioni Forti  Vento > 20 kt
SIGMETs :   Varie  Temporali  Ghiacco  Turbolenza  Onda orograficha  Ceneri Vulcaniche






- Altitudine del aeroporto : 122 ft
- Codice IATA : TXL


EDDT - Berlin Tegel Int.

ULTIMO METAR :
  • 251950Z VRB01KT CAVOK 11/10 Q0997 NOSIG

METARs OBSOLETI :
  • 251920Z VRB02KT CAVOK 11/10 Q0997 NOSIG
  • 251850Z VRB02KT CAVOK 11/10 Q0997 NOSIG
  • 251820Z VRB01KT CAVOK 11/09 Q0997 NOSIG
  • 251750Z VRB01KT CAVOK 11/09 Q0997 NOSIG
  • 251720Z 31002KT CAVOK 13/09 Q0997 NOSIG

TAF TAF EDDT
Valido dal 25 a 18 ore il 26 a 18 ore UTC


251700Z 2518/2618 26005KT 9999 FEW040
BECMG 2602/2606 32008KT
BECMG 2606/2610 RA
TEMPO 2609/2612 BKN011
BECMG 2610/2612 29015G30KT
BECMG 2612/2615 BKN007
PROB40
TEMPO 2614/2618 3000 DZRA BKN004



MetMap, La meteo Aeronautica in un colpo d'occhio ! - Copyright ORBIFLY Dicembre 2007 - Disclaimer

ORBIFLY MET'MAP TEAM :

Programmazione e sviluppo : Alexandra Zaïnal
Concezione : Baudouin d'Aumeries
Aiuto per la programmazione : Marc-Olivier Méhu
Supporto tecnico e logistico : Manuel Goepfert
Aiuto per la traduzione : Arnaldo La Scala

Contatto : metmap@orbifly.com




FONTI E CREDITI :

   NOAA